createdAt,value
2022-09-16T00:01:28.899Z,14.80
2022-09-16T00:03:56.665Z,14.70
2022-09-16T00:06:24.973Z,14.60
2022-09-16T00:08:52.562Z,14.60
2022-09-16T00:11:20.110Z,14.60
2022-09-16T00:13:47.670Z,14.50
2022-09-16T00:16:18.006Z,14.50
2022-09-16T00:18:45.482Z,14.70
2022-09-16T00:21:13.795Z,14.60
2022-09-16T00:23:41.339Z,14.60
2022-09-16T00:26:08.923Z,14.50
2022-09-16T00:28:36.467Z,14.50
2022-09-16T00:31:04.073Z,14.40
2022-09-16T00:33:32.489Z,14.30
2022-09-16T00:36:06.542Z,14.10
2022-09-16T00:38:34.085Z,14.10
2022-09-16T00:41:01.640Z,14.10
2022-09-16T00:43:29.213Z,14.00
2022-09-16T00:46:00.503Z,13.90
2022-09-16T00:48:28.061Z,13.90
2022-09-16T00:50:55.606Z,13.90
2022-09-16T00:53:23.140Z,13.90
2022-09-16T00:55:50.693Z,13.80
2022-09-16T00:58:20.957Z,13.80
2022-09-16T01:00:48.518Z,13.80
2022-09-16T01:03:16.097Z,13.70
2022-09-16T01:05:43.650Z,13.90
2022-09-16T01:08:11.961Z,13.90
2022-09-16T01:10:39.532Z,13.80
2022-09-16T01:13:07.111Z,13.80
2022-09-16T01:15:55.636Z,13.80
2022-09-16T01:18:38.748Z,13.70
2022-09-16T01:21:15.830Z,13.60
2022-09-16T01:24:07.872Z,13.60
2022-09-16T01:26:44.289Z,13.60
2022-09-16T01:29:11.831Z,13.60
2022-09-16T01:31:54.125Z,13.50
2022-09-16T01:34:33.373Z,13.50
2022-09-16T01:37:00.938Z,13.50
2022-09-16T01:39:46.792Z,13.40
2022-09-16T01:42:27.168Z,13.30
2022-09-16T01:45:00.425Z,13.30
2022-09-16T01:47:39.813Z,13.30
2022-09-16T01:50:13.071Z,13.60
2022-09-16T01:52:43.452Z,13.50
2022-09-16T01:55:14.364Z,14.00
2022-09-16T01:57:41.908Z,13.90
2022-09-16T02:00:09.576Z,13.90
2022-09-16T02:02:42.711Z,13.80
2022-09-16T02:05:10.179Z,13.70
2022-09-16T02:07:37.713Z,13.80
2022-09-16T02:10:09.463Z,13.60
2022-09-16T02:12:37.002Z,13.60
2022-09-16T02:15:04.541Z,13.50
2022-09-16T02:17:32.084Z,13.50
2022-09-16T02:19:59.615Z,13.40
2022-09-16T02:22:33.912Z,13.30
2022-09-16T02:25:01.477Z,13.30
2022-09-16T02:27:29.790Z,13.30
2022-09-16T02:29:57.340Z,13.20
2022-09-16T02:32:24.904Z,13.20
2022-09-16T02:34:52.459Z,13.20
2022-09-16T02:37:20.004Z,13.20
2022-09-16T02:39:49.269Z,13.20
2022-09-16T02:42:16.688Z,13.20
2022-09-16T02:44:44.222Z,13.20
2022-09-16T02:47:17.586Z,13.20
2022-09-16T02:50:15.530Z,13.20
2022-09-16T02:52:45.801Z,13.20
2022-09-16T02:55:19.754Z,13.80
2022-09-16T02:57:47.289Z,13.80
2022-09-16T03:00:14.982Z,13.70
2022-09-16T03:02:42.583Z,13.70
2022-09-16T03:05:10.069Z,13.60
2022-09-16T03:07:37.626Z,13.60
2022-09-16T03:10:05.309Z,13.50
2022-09-16T03:12:50.914Z,13.50
2022-09-16T03:15:36.679Z,13.50
2022-09-16T03:18:28.331Z,13.40
2022-09-16T03:21:04.783Z,13.40
2022-09-16T03:23:41.181Z,13.40
2022-09-16T03:26:23.460Z,13.40
2022-09-16T03:28:51.009Z,13.40
2022-09-16T03:31:18.581Z,13.40
2022-09-16T03:33:51.915Z,13.40
2022-09-16T03:36:20.257Z,13.40
2022-09-16T03:38:47.806Z,13.40
2022-09-16T03:41:15.478Z,13.40
2022-09-16T03:43:43.028Z,13.40
2022-09-16T03:46:10.632Z,13.40
2022-09-16T03:48:38.109Z,13.40
2022-09-16T03:51:05.681Z,13.60
2022-09-16T03:53:33.213Z,13.70
2022-09-16T03:56:01.522Z,13.60
2022-09-16T03:58:29.106Z,13.60
2022-09-16T04:00:56.630Z,13.60
2022-09-16T04:03:24.172Z,13.60
2022-09-16T04:05:54.466Z,13.80
2022-09-16T04:08:22.007Z,13.80
2022-09-16T04:10:58.286Z,13.80
2022-09-16T04:13:25.809Z,13.80
2022-09-16T04:15:53.404Z,13.70
2022-09-16T04:18:20.881Z,13.70
2022-09-16T04:20:49.213Z,13.70
2022-09-16T04:23:16.747Z,13.70
2022-09-16T04:25:44.292Z,13.70
2022-09-16T04:28:11.865Z,13.60
2022-09-16T04:30:39.421Z,13.60
2022-09-16T04:33:07.679Z,13.60
2022-09-16T04:35:35.265Z,13.60
2022-09-16T04:38:02.786Z,13.60
2022-09-16T04:40:31.130Z,13.60
2022-09-16T04:42:58.649Z,13.60
2022-09-16T04:45:26.193Z,13.60
2022-09-16T04:47:59.655Z,13.60
2022-09-16T04:50:27.271Z,13.60
2022-09-16T04:52:54.804Z,13.60
2022-09-16T04:55:23.113Z,13.90
2022-09-16T04:57:50.939Z,13.80
2022-09-16T05:00:18.486Z,13.80
2022-09-16T05:02:46.011Z,13.80
2022-09-16T05:05:13.574Z,13.80
2022-09-16T05:07:41.109Z,13.70
2022-09-16T05:10:08.788Z,13.70
2022-09-16T05:12:36.346Z,13.70
2022-09-16T05:15:03.953Z,13.70
2022-09-16T05:17:50.306Z,13.60
2022-09-16T05:19:59.829Z,13.60
2022-09-16T05:22:27.363Z,13.60
2022-09-16T05:24:54.886Z,13.60
2022-09-16T05:27:22.469Z,13.60
2022-09-16T05:29:49.981Z,13.60
2022-09-16T05:32:17.515Z,13.80
2022-09-16T05:34:45.637Z,13.80
2022-09-16T05:37:13.160Z,13.80
2022-09-16T05:39:40.708Z,13.80
2022-09-16T05:42:08.287Z,13.70
2022-09-16T05:44:35.817Z,13.70
2022-09-16T05:47:03.353Z,13.70
2022-09-16T05:49:31.691Z,13.70
2022-09-16T05:51:59.217Z,13.70
2022-09-16T05:54:26.757Z,13.70
2022-09-16T05:56:55.081Z,13.80
2022-09-16T05:59:22.617Z,13.80
2022-09-16T06:01:50.180Z,13.80
2022-09-16T06:04:17.714Z,14.00
2022-09-16T06:06:45.253Z,13.90
2022-09-16T06:09:16.474Z,13.90
2022-09-16T06:11:44.030Z,13.80
2022-09-16T06:14:11.613Z,13.80
2022-09-16T06:16:39.876Z,14.00
2022-09-16T06:19:07.440Z,14.00
2022-09-16T06:21:34.978Z,14.30
2022-09-16T06:24:02.502Z,14.30
2022-09-16T06:26:30.078Z,14.20
2022-09-16T06:28:57.626Z,14.20
2022-09-16T06:31:25.252Z,14.10
2022-09-16T06:33:53.492Z,14.10
2022-09-16T06:36:21.032Z,14.10
2022-09-16T06:38:48.746Z,14.00
2022-09-16T06:41:28.056Z,14.00
2022-09-16T06:43:55.598Z,14.00
2022-09-16T06:46:23.223Z,14.00
2022-09-16T06:48:50.760Z,14.20
2022-09-16T06:51:19.054Z,14.20
2022-09-16T06:53:46.897Z,14.10
2022-09-16T06:56:15.234Z,14.10
2022-09-16T06:58:42.772Z,14.00
2022-09-16T07:01:13.081Z,14.00
2022-09-16T07:03:40.579Z,14.00
2022-09-16T07:06:08.124Z,14.00
2022-09-16T07:08:35.674Z,13.90
2022-09-16T07:11:06.026Z,13.90
2022-09-16T07:13:33.560Z,13.90
2022-09-16T07:16:16.470Z,13.90
2022-09-16T07:18:29.443Z,14.00
2022-09-16T07:21:05.731Z,13.90
2022-09-16T07:23:33.279Z,14.00
2022-09-16T07:26:03.887Z,14.00
2022-09-16T07:28:31.617Z,14.00
2022-09-16T07:31:02.313Z,14.10
2022-09-16T07:33:29.990Z,14.30
2022-09-16T07:36:00.415Z,14.60
2022-09-16T07:38:27.939Z,14.60
2022-09-16T07:40:55.516Z,14.50
2022-09-16T07:43:23.859Z,14.50
2022-09-16T07:45:57.626Z,14.40
2022-09-16T07:48:25.151Z,14.50
2022-09-16T07:50:56.366Z,14.60
2022-09-16T07:53:25.246Z,14.60
2022-09-16T07:55:51.474Z,14.70
2022-09-16T07:58:19.014Z,14.90
2022-09-16T08:00:46.537Z,15.00
2022-09-16T08:03:14.972Z,15.10
2022-09-16T08:05:42.516Z,15.10
2022-09-16T08:08:10.059Z,15.00
2022-09-16T08:10:37.648Z,15.30
2022-09-16T08:13:05.173Z,15.30
2022-09-16T08:15:32.711Z,15.20
2022-09-16T08:18:01.071Z,15.10
2022-09-16T08:20:29.381Z,15.30
2022-09-16T08:22:58.062Z,15.30
2022-09-16T08:25:25.261Z,15.30
2022-09-16T08:27:55.644Z,15.30
2022-09-16T08:30:20.414Z,15.20
2022-09-16T08:32:48.325Z,15.40
2022-09-16T08:35:15.895Z,15.50
2022-09-16T08:37:46.950Z,15.50
2022-09-16T08:40:11.115Z,15.50
2022-09-16T08:43:05.971Z,15.40
2022-09-16T08:45:39.289Z,15.70
2022-09-16T08:48:09.191Z,15.70
2022-09-16T08:50:39.355Z,15.60
2022-09-16T08:53:06.926Z,15.80
2022-09-16T08:55:40.838Z,15.80
2022-09-16T08:58:11.465Z,15.70
2022-09-16T09:00:39.112Z,15.70
2022-09-16T09:03:16.121Z,15.90
2022-09-16T09:05:53.686Z,15.80
2022-09-16T09:08:26.688Z,15.80
2022-09-16T09:11:00.000Z,15.70
2022-09-16T09:13:39.319Z,15.70
2022-09-16T09:16:31.327Z,15.80
2022-09-16T09:19:17.466Z,15.80
2022-09-16T09:21:45.813Z,15.60
2022-09-16T09:24:40.514Z,15.60
2022-09-16T09:27:11.052Z,15.60
2022-09-16T09:29:38.572Z,15.80
2022-09-16T09:32:46.327Z,15.90
2022-09-16T09:35:26.590Z,16.00
2022-09-16T09:38:03.514Z,16.20
2022-09-16T09:40:31.095Z,16.20
2022-09-16T09:43:04.277Z,16.30
2022-09-16T09:45:46.663Z,16.30
2022-09-16T09:48:22.701Z,16.30
2022-09-16T09:50:50.225Z,16.30
2022-09-16T09:53:21.839Z,16.30
2022-09-16T09:55:49.378Z,16.30
2022-09-16T09:58:38.013Z,16.40
2022-09-16T10:01:06.375Z,16.50
2022-09-16T10:03:33.824Z,16.40
2022-09-16T10:06:02.168Z,16.50
2022-09-16T10:08:44.400Z,16.50
2022-09-16T10:11:21.197Z,16.50
2022-09-16T10:13:52.282Z,16.50
2022-09-16T10:16:19.886Z,16.50
2022-09-16T10:18:53.071Z,16.50
2022-09-16T10:21:20.595Z,16.50
2022-09-16T10:23:54.203Z,16.50
2022-09-16T10:26:24.812Z,16.50
2022-09-16T10:29:00.912Z,16.50
2022-09-16T10:31:37.427Z,16.60
2022-09-16T10:34:07.496Z,16.70
2022-09-16T10:36:35.040Z,17.00
2022-09-16T10:39:04.856Z,17.00
2022-09-16T10:41:35.674Z,17.00
2022-09-16T10:44:18.564Z,17.00
2022-09-16T10:46:58.743Z,16.90
2022-09-16T10:49:44.979Z,16.90
2022-09-16T10:52:15.231Z,16.90
2022-09-16T10:54:42.756Z,16.80
2022-09-16T10:57:28.630Z,17.00
2022-09-16T11:00:17.325Z,17.00
2022-09-16T11:03:06.983Z,16.90
2022-09-16T11:05:34.515Z,16.90
2022-09-16T11:08:20.815Z,16.90
2022-09-16T11:10:54.307Z,16.90
2022-09-16T11:13:30.577Z,16.90
2022-09-16T11:16:16.465Z,16.70
2022-09-16T11:18:56.142Z,16.50
2022-09-16T11:21:33.295Z,16.40
2022-09-16T11:24:12.794Z,16.50
2022-09-16T11:26:46.332Z,16.20
2022-09-16T11:29:16.812Z,16.00
2022-09-16T11:31:59.400Z,15.90
2022-09-16T11:34:39.403Z,16.10
2022-09-16T11:37:25.449Z,16.10
2022-09-16T11:40:21.543Z,16.10
2022-09-16T11:43:10.016Z,16.10
2022-09-16T11:45:43.219Z,16.00
2022-09-16T11:48:28.472Z,16.00
2022-09-16T11:51:20.258Z,15.90
2022-09-16T11:54:14.900Z,15.80
2022-09-16T11:56:42.415Z,16.00
2022-09-16T11:59:21.557Z,16.00
2022-09-16T12:01:52.014Z,16.00
2022-09-16T12:04:38.350Z,16.00
2022-09-16T12:07:28.561Z,16.00
2022-09-16T12:10:04.590Z,16.10
2022-09-16T12:12:32.136Z,16.20
2022-09-16T12:15:05.684Z,16.20
2022-09-16T12:17:31.132Z,16.20
2022-09-16T12:20:01.339Z,16.30
2022-09-16T12:22:37.540Z,16.40
2022-09-16T12:25:08.314Z,16.60
2022-09-16T12:27:51.285Z,16.60
2022-09-16T12:30:19.570Z,16.80
2022-09-16T12:32:49.901Z,16.80
2022-09-16T12:35:29.242Z,16.90
2022-09-16T12:37:56.784Z,17.00
2022-09-16T12:40:33.643Z,17.20
2022-09-16T12:43:31.894Z,17.20
2022-09-16T12:46:02.287Z,17.30
2022-09-16T12:48:47.769Z,17.40
2022-09-16T12:51:44.974Z,17.60
2022-09-16T12:54:21.888Z,17.70
2022-09-16T12:56:52.201Z,17.80
2022-09-16T12:59:29.214Z,18.10
2022-09-16T13:02:00.129Z,18.10
2022-09-16T13:04:36.910Z,17.80
2022-09-16T13:07:04.789Z,17.80
2022-09-16T13:09:32.312Z,17.70
2022-09-16T13:14:32.788Z,17.40
2022-09-16T13:17:00.314Z,17.20
2022-09-16T13:19:35.378Z,17.00
2022-09-16T13:22:14.823Z,17.00
2022-09-16T13:24:53.966Z,16.90
2022-09-16T13:27:33.727Z,16.90
2022-09-16T13:30:09.631Z,16.90
2022-09-16T13:32:43.705Z,16.90
2022-09-16T13:35:20.140Z,16.90
2022-09-16T13:37:47.661Z,16.90
2022-09-16T13:40:21.872Z,16.80
2022-09-16T13:42:50.080Z,16.70
2022-09-16T13:45:32.763Z,16.70
2022-09-16T13:48:06.942Z,16.60
2022-09-16T13:50:35.511Z,16.60
2022-09-16T13:53:18.078Z,16.50
2022-09-16T13:55:46.370Z,16.70
2022-09-16T13:58:25.927Z,16.70
2022-09-16T14:01:08.433Z,16.70
2022-09-16T14:03:57.529Z,16.70
2022-09-16T14:06:31.010Z,16.70
2022-09-16T14:08:58.553Z,16.60
2022-09-16T14:11:32.559Z,16.60
2022-09-16T14:14:05.735Z,16.60
2022-09-16T14:16:30.461Z,16.50
2022-09-16T14:19:07.223Z,16.50
2022-09-16T14:21:35.575Z,16.60
2022-09-16T14:24:18.425Z,16.50
2022-09-16T14:26:54.832Z,16.40
2022-09-16T14:29:22.416Z,16.10
2022-09-16T14:31:50.817Z,15.70
2022-09-16T14:34:20.761Z,15.70
2022-09-16T14:36:48.322Z,15.60
2022-09-16T14:39:15.858Z,15.40
2022-09-16T14:41:55.445Z,15.40
2022-09-16T14:44:22.994Z,15.30
2022-09-16T14:46:56.877Z,15.00
2022-09-16T14:49:20.822Z,14.80
2022-09-16T14:51:50.801Z,14.90
2022-09-16T14:54:21.100Z,15.10
2022-09-16T14:57:03.395Z,15.00
2022-09-16T14:59:36.753Z,15.00
2022-09-16T15:02:13.910Z,14.80
2022-09-16T15:04:41.359Z,14.80
2022-09-16T15:07:12.563Z,14.70
2022-09-16T15:09:53.988Z,14.70
2022-09-16T15:12:24.241Z,14.60
2022-09-16T15:14:51.771Z,14.60
2022-09-16T15:17:19.331Z,14.50
2022-09-16T15:19:46.865Z,14.50
2022-09-16T15:22:14.395Z,14.70
2022-09-16T15:24:42.052Z,14.70
2022-09-16T15:27:09.587Z,14.60
2022-09-16T15:29:37.898Z,14.50
2022-09-16T15:32:20.153Z,14.50
2022-09-16T15:34:47.684Z,14.50
2022-09-16T15:37:30.556Z,14.50
2022-09-16T15:39:58.101Z,14.50
2022-09-16T15:42:25.601Z,14.50
2022-09-16T15:44:56.726Z,14.50
2022-09-16T15:47:30.111Z,14.70
2022-09-16T15:50:00.862Z,14.70
2022-09-16T15:52:28.271Z,14.70
2022-09-16T15:54:58.754Z,14.70
2022-09-16T15:57:33.272Z,14.60
2022-09-16T16:00:09.943Z,14.60
2022-09-16T16:02:52.275Z,14.60
2022-09-16T16:05:20.503Z,14.60
2022-09-16T16:07:53.648Z,14.50
2022-09-16T16:10:23.632Z,14.60
2022-09-16T16:12:51.167Z,14.50
2022-09-16T16:15:18.700Z,14.50
2022-09-16T16:17:46.275Z,14.50
2022-09-16T16:20:14.589Z,14.40
2022-09-16T16:22:42.539Z,14.40
2022-09-16T16:25:09.784Z,14.40
2022-09-16T16:27:37.305Z,14.40
2022-09-16T16:30:04.909Z,14.40
2022-09-16T16:32:32.483Z,14.40
2022-09-16T16:35:00.009Z,14.70
2022-09-16T16:37:45.566Z,14.60
2022-09-16T16:39:55.902Z,14.60
2022-09-16T16:42:23.388Z,14.60
2022-09-16T16:44:50.931Z,14.60
2022-09-16T16:47:18.540Z,14.60
2022-09-16T16:49:49.561Z,14.50
2022-09-16T16:52:13.578Z,14.50
2022-09-16T16:54:41.142Z,14.50
2022-09-16T16:57:08.673Z,14.40
2022-09-16T16:59:36.208Z,14.40
2022-09-16T17:02:04.583Z,14.30
2022-09-16T17:04:32.094Z,14.20
2022-09-16T17:07:24.022Z,14.20
2022-09-16T17:09:27.183Z,14.10
2022-09-16T17:11:54.719Z,14.00
2022-09-16T17:14:23.021Z,13.90
2022-09-16T17:16:51.013Z,13.90
2022-09-16T17:19:18.567Z,13.90
2022-09-16T17:21:46.091Z,14.10
2022-09-16T17:24:14.423Z,13.90
2022-09-16T17:26:41.939Z,13.90
2022-09-16T17:29:15.664Z,13.90
2022-09-16T17:31:37.571Z,13.80
2022-09-16T17:34:05.105Z,13.80
2022-09-16T17:36:33.475Z,13.60
2022-09-16T17:39:01.051Z,13.60
2022-09-16T17:41:29.357Z,13.50
2022-09-16T17:43:56.917Z,13.50
2022-09-16T17:46:24.525Z,13.50
2022-09-16T17:48:52.017Z,13.40
2022-09-16T17:51:19.539Z,13.40
2022-09-16T17:53:47.146Z,13.30
2022-09-16T17:56:15.408Z,13.20
2022-09-16T17:58:46.465Z,13.20
2022-09-16T18:01:22.861Z,13.10
2022-09-16T18:03:50.502Z,13.10
2022-09-16T18:06:20.847Z,13.00
2022-09-16T18:08:48.408Z,12.90
2022-09-16T18:11:15.941Z,12.90
2022-09-16T18:13:43.507Z,12.80
2022-09-16T18:16:16.563Z,12.80
2022-09-16T18:18:44.051Z,12.70
2022-09-16T18:21:11.591Z,12.70
2022-09-16T18:23:39.454Z,12.60
2022-09-16T18:26:06.976Z,12.60
2022-09-16T18:29:05.212Z,12.60
2022-09-16T18:31:07.668Z,12.50
2022-09-16T18:33:35.147Z,12.50
2022-09-16T18:36:02.718Z,12.40
2022-09-16T18:38:30.341Z,12.40
2022-09-16T18:41:03.554Z,12.40
2022-09-16T18:43:31.109Z,12.40
2022-09-16T18:46:10.781Z,12.30
2022-09-16T18:48:38.279Z,12.30
2022-09-16T18:51:06.597Z,12.30
2022-09-16T18:53:34.163Z,12.30
2022-09-16T18:56:01.696Z,12.30
2022-09-16T18:58:29.231Z,12.30
2022-09-16T19:00:57.633Z,12.20
2022-09-16T19:03:25.888Z,12.20
2022-09-16T19:05:54.199Z,12.20
2022-09-16T19:08:21.772Z,12.10
2022-09-16T19:10:49.294Z,12.10
2022-09-16T19:13:16.827Z,12.10
2022-09-16T19:15:45.170Z,12.10
2022-09-16T19:18:12.705Z,12.00
2022-09-16T19:20:42.931Z,12.00
2022-09-16T19:23:10.497Z,12.00
2022-09-16T19:25:38.029Z,11.90
2022-09-16T19:28:05.574Z,11.90
2022-09-16T19:30:34.153Z,11.90
2022-09-16T19:33:02.479Z,11.80
2022-09-16T19:35:32.810Z,11.80
2022-09-16T19:38:00.387Z,11.80
2022-09-16T19:40:27.944Z,11.80
2022-09-16T19:42:55.441Z,12.00
2022-09-16T19:45:27.715Z,12.00
2022-09-16T19:47:50.562Z,11.90
2022-09-16T19:50:18.853Z,11.80
2022-09-16T19:52:46.472Z,11.80
2022-09-16T19:55:14.000Z,11.80
2022-09-16T19:57:41.552Z,12.00
2022-09-16T20:00:09.234Z,12.30
2022-09-16T20:02:36.822Z,12.40
2022-09-16T20:05:06.186Z,12.30
2022-09-16T20:07:31.879Z,12.40
2022-09-16T20:09:59.427Z,12.60
2022-09-16T20:12:26.949Z,12.40
2022-09-16T20:14:55.298Z,12.10
2022-09-16T20:17:22.835Z,12.10
2022-09-16T20:19:50.358Z,11.90
2022-09-16T20:22:18.843Z,11.80
2022-09-16T20:24:53.752Z,11.70
2022-09-16T20:27:13.904Z,11.60
2022-09-16T20:29:41.482Z,11.60
2022-09-16T20:32:11.262Z,12.00
2022-09-16T20:34:38.704Z,12.00
2022-09-16T20:37:06.267Z,12.20
2022-09-16T20:39:33.799Z,12.10
2022-09-16T20:42:02.095Z,11.90
2022-09-16T20:44:29.658Z,11.80
2022-09-16T20:46:57.179Z,11.80
2022-09-16T20:49:25.551Z,11.60
2022-09-16T20:51:54.092Z,11.60
2022-09-16T20:54:21.623Z,11.60
2022-09-16T20:56:49.160Z,11.50
2022-09-16T20:59:16.763Z,11.40
2022-09-16T21:01:44.290Z,11.40
2022-09-16T21:04:15.674Z,11.30
2022-09-16T21:06:43.255Z,11.30
2022-09-16T21:09:11.111Z,11.30
2022-09-16T21:11:38.637Z,11.30
2022-09-16T21:14:06.220Z,11.20
2022-09-16T21:16:33.819Z,11.20
2022-09-16T21:19:01.275Z,11.20
2022-09-16T21:21:28.843Z,11.20
2022-09-16T21:23:57.183Z,11.10
2022-09-16T21:26:24.675Z,11.10
2022-09-16T21:28:58.960Z,11.10
2022-09-16T21:31:26.526Z,11.10
2022-09-16T21:33:54.019Z,11.10
2022-09-16T21:36:22.370Z,11.10
2022-09-16T21:38:49.914Z,11.10
2022-09-16T21:41:17.421Z,11.00
2022-09-16T21:43:45.773Z,11.30
2022-09-16T21:46:13.355Z,11.30
2022-09-16T21:48:40.842Z,11.20
2022-09-16T21:51:08.407Z,11.20
2022-09-16T21:53:36.040Z,11.10
2022-09-16T21:56:06.084Z,11.10
2022-09-16T21:58:33.646Z,11.00
2022-09-16T22:01:09.809Z,11.00
2022-09-16T22:03:37.454Z,11.00
2022-09-16T22:06:05.658Z,10.90
2022-09-16T22:08:33.183Z,10.90
2022-09-16T22:11:00.710Z,10.80
2022-09-16T22:13:29.148Z,10.80
2022-09-16T22:15:56.738Z,10.80
2022-09-16T22:18:24.199Z,10.70
2022-09-16T22:20:51.784Z,10.70
2022-09-16T22:23:19.317Z,10.70
2022-09-16T22:25:46.845Z,10.70
2022-09-16T22:28:14.419Z,10.70
2022-09-16T22:30:41.954Z,10.60
2022-09-16T22:33:09.489Z,10.60
2022-09-16T22:35:38.197Z,10.80
2022-09-16T22:38:05.656Z,10.80
2022-09-16T22:40:33.244Z,10.70
2022-09-16T22:43:01.503Z,10.60
2022-09-16T22:45:29.030Z,10.60
2022-09-16T22:47:56.560Z,10.60
2022-09-16T22:50:25.190Z,10.50
2022-09-16T22:52:52.714Z,10.50
2022-09-16T22:55:20.252Z,10.40
2022-09-16T22:57:47.801Z,10.40
2022-09-16T23:00:15.465Z,10.40
2022-09-16T23:02:43.059Z,10.30
2022-09-16T23:05:10.632Z,10.30
2022-09-16T23:07:38.178Z,10.50
2022-09-16T23:10:10.440Z,10.40
2022-09-16T23:12:34.163Z,10.40
2022-09-16T23:15:01.699Z,10.30
2022-09-16T23:17:29.222Z,10.30
2022-09-16T23:19:57.552Z,10.40
2022-09-16T23:22:25.088Z,10.40
2022-09-16T23:24:52.622Z,10.30
2022-09-16T23:27:20.993Z,10.40
2022-09-16T23:29:49.296Z,10.30
2022-09-16T23:32:16.831Z,10.30
2022-09-16T23:34:45.163Z,10.20
2022-09-16T23:37:12.704Z,10.10
2022-09-16T23:39:40.236Z,10.10
2022-09-16T23:42:07.818Z,10.30
2022-09-16T23:44:35.343Z,10.20
2022-09-16T23:47:03.646Z,10.00
2022-09-16T23:49:31.218Z,10.00
2022-09-16T23:51:58.743Z,9.90
2022-09-16T23:54:26.268Z,9.80
2022-09-16T23:56:54.089Z,9.80
2022-09-16T23:59:21.614Z,9.80
